Time;durP1;ratioP1;P1;durP2;ratioP2;P2;SDS_P1;SDS_P2;PMS_P1;PMS_P2;Temp;Humidity;BMP_temperature;BMP_pressure;BME280_temperature;BME280_humidity;BME280_pressure;Samples;Min_cycle;Max_cycle;Signal;HPM_P1;HPM_P2
2023/05/12 00:00:06;;;;;;;2.57;2.30;;;11.00;99.90;;;;;;5036188;28;20207;-41
2023/05/12 00:02:40;;;;;;;3.90;2.17;;;11.00;99.90;;;;;;5046822;28;20197;-42
2023/05/12 00:05:06;;;;;;;2.47;2.20;;;11.00;99.90;;;;;;5071874;28;20186;-39
2023/05/12 00:07:32;;;;;;;2.57;2.30;;;10.90;99.90;;;;;;5069983;28;20251;-41
2023/05/12 00:09:57;;;;;;;4.33;2.20;;;10.90;99.90;;;;;;5036086;28;20183;-39
2023/05/12 00:12:23;;;;;;;4.47;2.33;;;10.90;99.90;;;;;;5034059;28;20182;-41
2023/05/12 00:14:49;;;;;;;2.73;2.50;;;10.90;99.90;;;;;;5052742;28;20181;-40
2023/05/12 00:17:15;;;;;;;2.60;2.40;;;10.90;99.90;;;;;;5051990;28;20260;-41
2023/05/12 00:19:42;;;;;;;4.33;2.60;;;10.90;99.90;;;;;;5022694;28;20203;-41
2023/05/12 00:22:10;;;;;;;2.93;2.40;;;11.00;99.90;;;;;;5053411;28;20176;-41
2023/05/12 00:24:36;;;;;;;2.40;2.20;;;11.00;99.90;;;;;;5053386;28;20201;-40
2023/05/12 00:27:02;;;;;;;3.30;2.50;;;11.00;99.90;;;;;;5035591;28;20181;-41
2023/05/12 00:29:27;;;;;;;6.00;2.67;;;11.00;99.90;;;;;;5036996;28;20206;-40
2023/05/12 00:31:54;;;;;;;4.40;2.67;;;11.10;99.90;;;;;;5065407;28;20175;-41
2023/05/12 00:34:20;;;;;;;4.30;2.80;;;11.10;99.90;;;;;;5034897;28;20203;-41
2023/05/12 00:36:46;;;;;;;5.03;2.97;;;11.10;99.90;;;;;;5056629;28;20183;-40
2023/05/12 00:39:11;;;;;;;6.80;3.43;;;11.10;99.90;;;;;;5043022;28;20217;-40
2023/05/12 00:41:37;;;;;;;4.20;2.73;;;11.10;99.90;;;;;;5027175;28;20321;-41
2023/05/12 00:44:03;;;;;;;3.07;2.60;;;11.10;99.90;;;;;;5037355;28;20209;-40
2023/05/12 00:46:30;;;;;;;4.43;2.57;;;11.10;99.90;;;;;;5071896;28;20182;-39
2023/05/12 00:48:56;;;;;;;3.90;2.40;;;11.10;99.90;;;;;;5035549;28;20215;-41
2023/05/12 00:51:23;;;;;;;3.07;2.30;;;11.00;99.90;;;;;;5034003;28;20184;-41
2023/05/12 00:53:49;;;;;;;3.30;2.40;;;11.00;99.90;;;;;;5033463;28;20213;-39
2023/05/12 00:56:17;;;;;;;3.57;2.90;;;11.00;99.90;;;;;;5016639;28;20181;-41
2023/05/12 00:58:43;;;;;;;4.27;2.80;;;11.00;99.90;;;;;;5034319;28;20207;-41
2023/05/12 01:01:09;;;;;;;5.83;2.50;;;11.00;99.90;;;;;;5047706;28;20191;-41
2023/05/12 01:03:38;;;;;;;3.50;2.53;;;11.10;99.90;;;;;;5053806;28;20209;-41
2023/05/12 01:06:31;;;;;;;3.43;2.50;;;11.10;99.90;;;;;;5021761;28;20184;-41
2023/05/12 01:08:58;;;;;;;4.20;3.00;;;11.10;99.90;;;;;;5028614;28;20331;-41
2023/05/12 01:11:24;;;;;;;3.00;2.70;;;11.10;99.90;;;;;;5044268;28;20193;-42
2023/05/12 01:13:50;;;;;;;3.27;2.97;;;11.10;99.90;;;;;;5040253;28;20203;-41
2023/05/12 01:16:20;;;;;;;2.60;2.40;;;11.10;99.90;;;;;;5033227;28;20182;-41
2023/05/12 01:18:50;;;;;;;4.50;2.57;;;11.10;99.90;;;;;;5044916;28;20205;-40
2023/05/12 01:21:17;;;;;;;5.33;3.30;;;11.10;99.90;;;;;;5054809;28;20178;-39
2023/05/12 01:23:48;;;;;;;8.40;3.73;;;11.10;99.90;;;;;;5032689;28;20196;-41
2023/05/12 01:26:14;;;;;;;5.73;3.17;;;11.10;99.90;;;;;;5036635;28;20252;-41
2023/05/12 01:28:40;;;;;;;3.73;3.00;;;11.10;99.90;;;;;;5033231;28;20205;-40
2023/05/12 01:31:08;;;;;;;3.20;2.90;;;11.10;99.90;;;;;;5051451;28;20195;-41
2023/05/12 01:33:37;;;;;;;4.00;2.47;;;11.20;99.90;;;;;;5024670;28;20205;-41
2023/05/12 01:36:03;;;;;;;6.17;2.70;;;11.20;99.90;;;;;;5032857;28;20210;-40
2023/05/12 01:38:39;;;;;;;3.50;2.73;;;11.20;99.90;;;;;;5040412;28;20220;-41
2023/05/12 01:41:06;;;;;;;3.40;2.90;;;11.20;99.90;;;;;;5046579;28;20174;-38
2023/05/12 01:43:32;;;;;;;4.30;2.70;;;11.20;99.90;;;;;;5034870;28;20220;-40
2023/05/12 01:45:58;;;;;;;5.23;2.90;;;11.20;99.90;;;;;;5027197;28;20208;-41
2023/05/12 01:48:24;;;;;;;3.30;2.80;;;11.20;99.90;;;;;;5040061;28;20212;-41
2023/05/12 01:50:50;;;;;;;5.07;3.00;;;11.20;99.90;;;;;;5050736;28;20570;-41
2023/05/12 01:53:19;;;;;;;4.63;3.20;;;11.20;99.90;;;;;;5034916;28;20241;-41
2023/05/12 01:55:45;;;;;;;3.27;2.67;;;11.20;99.90;;;;;;5033568;28;20193;-38
2023/05/12 01:58:11;;;;;;;4.67;3.00;;;11.20;99.90;;;;;;5032170;28;20215;-40
2023/05/12 02:00:37;;;;;;;9.87;2.90;;;11.20;99.90;;;;;;5036384;28;20188;-39
2023/05/12 02:03:06;;;;;;;3.37;2.80;;;11.20;99.90;;;;;;5040758;28;20254;-40
2023/05/12 02:05:32;;;;;;;3.37;2.80;;;11.20;99.90;;;;;;5035852;28;20190;-41
2023/05/12 02:07:59;;;;;;;3.47;3.00;;;11.30;99.90;;;;;;5034539;28;20278;-41
2023/05/12 02:10:25;;;;;;;3.47;3.17;;;11.30;99.90;;;;;;5052395;28;20276;-41
2023/05/12 02:12:51;;;;;;;5.70;3.10;;;11.30;99.90;;;;;;5050057;28;20203;-41
2023/05/12 02:15:16;;;;;;;6.07;3.37;;;11.20;99.90;;;;;;5034231;28;20182;-40
2023/05/12 02:17:45;;;;;;;3.70;3.00;;;11.20;99.90;;;;;;5038057;28;20183;-41
2023/05/12 02:20:11;;;;;;;3.80;3.33;;;11.30;99.90;;;;;;5033333;28;20231;-41
2023/05/12 02:22:37;;;;;;;3.13;2.80;;;11.20;99.90;;;;;;5064791;28;20236;-40
2023/05/12 02:25:04;;;;;;;2.97;2.77;;;11.20;99.90;;;;;;5036461;28;20279;-40
2023/05/12 02:27:31;;;;;;;2.93;2.70;;;11.20;99.90;;;;;;5027849;28;20264;-38
2023/05/12 02:29:57;;;;;;;3.30;3.10;;;11.20;99.90;;;;;;5039323;28;20672;-41
2023/05/12 02:32:26;;;;;;;3.23;2.93;;;11.20;99.90;;;;;;5040171;28;20191;-39
2023/05/12 02:34:55;;;;;;;3.80;2.83;;;11.20;99.90;;;;;;5039734;28;20225;-39
2023/05/12 02:37:21;;;;;;;2.97;2.67;;;11.10;99.90;;;;;;5027950;28;20264;-41
2023/05/12 02:39:47;;;;;;;3.43;2.83;;;11.10;99.90;;;;;;5043908;28;20289;-40
2023/05/12 02:42:13;;;;;;;3.90;2.83;;;11.10;99.90;;;;;;5062527;28;20184;-41
2023/05/12 02:44:38;;;;;;;3.10;2.60;;;11.10;99.90;;;;;;5055749;28;20195;-39
2023/05/12 02:47:04;;;;;;;4.60;2.93;;;11.20;99.90;;;;;;5051242;28;20244;-39
2023/05/12 02:49:31;;;;;;;3.30;2.97;;;11.20;99.90;;;;;;5048015;28;20181;-41
2023/05/12 02:51:58;;;;;;;2.80;2.60;;;11.20;99.90;;;;;;5036243;28;20194;-39
2023/05/12 02:54:23;;;;;;;4.97;3.17;;;11.20;99.90;;;;;;5035991;28;20204;-42
2023/05/12 02:56:49;;;;;;;4.50;2.90;;;11.20;99.90;;;;;;5036625;28;20173;-39
2023/05/12 02:59:15;;;;;;;3.03;2.73;;;11.20;99.90;;;;;;5035467;28;20252;-41
2023/05/12 03:01:41;;;;;;;4.17;2.87;;;11.20;99.90;;;;;;5050461;28;20265;-41
2023/05/12 03:04:07;;;;;;;3.27;2.90;;;11.20;99.90;;;;;;5038319;28;20289;-41
2023/05/12 03:06:33;;;;;;;2.63;2.43;;;11.20;99.90;;;;;;5037731;28;20273;-39
2023/05/12 03:08:59;;;;;;;3.67;2.47;;;11.20;99.90;;;;;;5063474;28;20182;-41
2023/05/12 03:11:25;;;;;;;3.70;3.23;;;11.20;99.90;;;;;;5050656;28;20187;-41
2023/05/12 03:13:51;;;;;;;7.13;2.93;;;11.20;99.90;;;;;;5038130;28;20214;-39
2023/05/12 03:16:17;;;;;;;3.70;3.30;;;11.10;99.90;;;;;;5054735;28;20186;-41
2023/05/12 03:18:43;;;;;;;3.10;2.80;;;11.10;99.90;;;;;;5046112;28;20207;-41
2023/05/12 03:21:09;;;;;;;3.70;3.37;;;11.10;99.90;;;;;;5040028;28;20653;-41
2023/05/12 03:23:36;;;;;;;3.17;2.87;;;11.10;99.90;;;;;;5054410;28;20201;-41
2023/05/12 03:26:01;;;;;;;3.40;2.97;;;11.10;99.90;;;;;;5038515;28;20208;-41
2023/05/12 03:28:28;;;;;;;3.30;3.00;;;11.10;99.90;;;;;;5038570;28;20187;-41
2023/05/12 03:30:54;;;;;;;5.50;3.20;;;11.10;99.90;;;;;;5033990;28;20209;-41
2023/05/12 03:33:20;;;;;;;4.03;3.27;;;11.10;99.90;;;;;;5052720;28;20236;-41
2023/05/12 03:35:46;;;;;;;3.60;3.30;;;11.10;99.90;;;;;;5052700;28;20206;-39
2023/05/12 03:38:12;;;;;;;3.40;3.10;;;11.10;99.90;;;;;;5031652;28;20187;-41
2023/05/12 03:40:38;;;;;;;3.47;3.17;;;11.10;99.90;;;;;;5050276;28;20179;-41
2023/05/12 03:43:03;;;;;;;3.07;2.47;;;11.10;99.90;;;;;;5041477;28;20225;-40
2023/05/12 03:45:29;;;;;;;3.57;2.93;;;11.10;99.90;;;;;;5034148;28;20641;-39
2023/05/12 03:47:55;;;;;;;2.80;2.60;;;11.10;99.90;;;;;;5065677;28;20265;-41
2023/05/12 03:50:21;;;;;;;5.13;2.97;;;11.10;99.90;;;;;;5042445;28;20183;-41
2023/05/12 03:52:47;;;;;;;3.47;3.07;;;11.00;99.90;;;;;;5046912;28;20203;-41
2023/05/12 03:55:13;;;;;;;3.53;2.90;;;11.00;99.90;;;;;;5047143;28;20184;-39
2023/05/12 03:57:38;;;;;;;4.37;2.90;;;11.00;99.90;;;;;;5049312;28;20220;-40
2023/05/12 04:00:05;;;;;;;3.93;3.03;;;11.00;99.90;;;;;;5029143;28;20218;-42
2023/05/12 04:02:38;;;;;;;5.43;3.40;;;11.00;99.90;;;;;;5061920;28;20217;-40
2023/05/12 04:05:07;;;;;;;4.50;3.67;;;10.90;99.90;;;;;;5047909;28;20206;-39
2023/05/12 04:07:32;;;;;;;7.40;3.47;;;10.90;99.90;;;;;;5029018;28;20212;-39
2023/05/12 04:10:02;;;;;;;3.50;3.20;;;10.90;99.90;;;;;;5029124;28;20207;-40
2023/05/12 04:12:30;;;;;;;3.27;2.97;;;10.90;99.90;;;;;;5049059;28;20281;-40
2023/05/12 04:14:57;;;;;;;3.87;3.40;;;10.90;99.90;;;;;;5031599;28;20209;-39
2023/05/12 04:17:25;;;;;;;4.37;3.20;;;10.90;99.90;;;;;;5057122;28;20205;-39
2023/05/12 04:19:53;;;;;;;4.10;3.70;;;10.90;99.90;;;;;;5034637;28;20251;-37
2023/05/12 04:22:19;;;;;;;4.77;3.50;;;10.90;99.90;;;;;;5035237;28;20186;-41
2023/05/12 04:24:50;;;;;;;4.27;3.47;;;10.90;99.90;;;;;;5051861;28;20183;-39
2023/05/12 04:27:17;;;;;;;4.03;3.47;;;10.90;99.90;;;;;;5020451;28;20208;-38
2023/05/12 04:29:43;;;;;;;4.40;3.30;;;10.90;99.90;;;;;;5034956;28;20201;-40
2023/05/12 04:32:10;;;;;;;3.77;3.43;;;10.90;99.90;;;;;;5024461;28;20187;-39
2023/05/12 04:34:36;;;;;;;4.17;3.57;;;11.00;99.90;;;;;;5022286;28;20208;-41
2023/05/12 04:37:02;;;;;;;3.73;3.43;;;10.90;99.90;;;;;;5033787;28;20249;-40
2023/05/12 04:39:28;;;;;;;5.37;3.33;;;11.00;99.90;;;;;;5042489;28;20210;-40
2023/05/12 04:41:54;;;;;;;4.00;3.70;;;11.00;99.90;;;;;;5025988;28;20191;-41
2023/05/12 04:44:21;;;;;;;3.97;3.43;;;10.90;99.90;;;;;;5033428;28;20304;-41
2023/05/12 04:46:52;;;;;;;4.20;3.80;;;10.90;99.90;;;;;;5035471;28;20181;-39
2023/05/12 04:49:17;;;;;;;6.43;3.83;;;10.90;99.90;;;;;;5053118;28;20187;-42
2023/05/12 04:51:43;;;;;;;4.47;3.50;;;10.90;99.90;;;;;;5037908;28;20183;-40
2023/05/12 04:54:10;;;;;;;3.97;3.57;;;11.00;99.90;;;;;;5048390;28;20275;-40
2023/05/12 04:56:36;;;;;;;4.63;4.00;;;11.00;99.90;;;;;;5048385;28;20197;-40
2023/05/12 04:59:02;;;;;;;5.87;4.50;;;11.00;99.90;;;;;;5050251;28;20209;-39
2023/05/12 05:01:28;;;;;;;6.80;5.07;;;11.00;99.90;;;;;;5039270;28;20180;-41
2023/05/12 05:03:55;;;;;;;6.87;5.33;;;11.00;99.90;;;;;;5033434;28;20206;-40
2023/05/12 05:06:21;;;;;;;7.80;5.67;;;11.00;99.90;;;;;;5033391;28;20184;-40
2023/05/12 05:08:48;;;;;;;7.20;5.50;;;11.10;99.90;;;;;;5041805;28;20250;-40
2023/05/12 05:11:14;;;;;;;7.90;5.50;;;11.10;99.90;;;;;;5022618;28;20186;-41
2023/05/12 05:13:41;;;;;;;6.40;5.43;;;11.10;99.90;;;;;;5040399;28;20771;-40
2023/05/12 05:16:07;;;;;;;8.83;5.63;;;11.20;99.90;;;;;;5042079;28;20206;-41
2023/05/12 05:18:33;;;;;;;7.50;5.80;;;11.20;99.90;;;;;;5039009;28;20206;-40
2023/05/12 05:20:59;;;;;;;8.03;5.60;;;11.20;99.90;;;;;;5027021;28;20233;-42
2023/05/12 05:23:25;;;;;;;7.60;5.90;;;11.20;99.90;;;;;;5052518;28;20206;-40
2023/05/12 05:25:51;;;;;;;6.23;5.20;;;11.20;99.90;;;;;;5032100;28;20186;-42
2023/05/12 05:28:17;;;;;;;7.43;6.07;;;11.20;99.90;;;;;;5030138;28;20178;-42
2023/05/12 05:30:43;;;;;;;7.00;5.93;;;11.10;99.90;;;;;;5030985;28;20187;-42
2023/05/12 05:33:11;;;;;;;8.70;5.93;;;11.10;99.90;;;;;;5052708;28;20205;-41
2023/05/12 05:35:38;;;;;;;8.60;5.93;;;11.20;99.90;;;;;;5058237;28;20176;-41
2023/05/12 05:38:03;;;;;;;9.20;7.03;;;11.20;99.90;;;;;;5027149;28;20225;-42
2023/05/12 05:40:30;;;;;;;8.20;5.73;;;11.20;99.90;;;;;;5028023;28;20188;-42
2023/05/12 05:42:56;;;;;;;8.27;6.03;;;11.20;99.90;;;;;;5039523;28;20656;-42
2023/05/12 05:45:22;;;;;;;8.23;6.37;;;11.20;99.90;;;;;;5035314;28;20180;-42
2023/05/12 05:47:50;;;;;;;9.87;6.30;;;11.20;99.90;;;;;;5032700;28;20178;-42
2023/05/12 05:50:16;;;;;;;7.60;6.63;;;11.30;99.90;;;;;;5040578;28;20607;-42
2023/05/12 05:52:42;;;;;;;10.90;7.40;;;11.30;99.90;;;;;;5033156;28;20246;-42
2023/05/12 05:55:08;;;;;;;9.80;7.13;;;11.40;99.90;;;;;;5038983;28;20182;-43
2023/05/12 05:57:34;;;;;;;8.30;6.27;;;11.40;99.90;;;;;;5024352;28;20194;-41
2023/05/12 06:00:01;;;;;;;12.90;6.90;;;11.50;99.90;;;;;;5032692;28;20216;-42
2023/05/12 06:02:28;;;;;;;8.60;6.53;;;11.50;99.90;;;;;;5057620;28;20225;-42
2023/05/12 06:04:54;;;;;;;9.43;6.73;;;11.60;99.90;;;;;;5027636;28;20188;-42
2023/05/12 06:07:20;;;;;;;11.00;7.60;;;11.60;99.90;;;;;;5032657;28;20651;-42
2023/05/12 06:09:46;;;;;;;9.00;7.43;;;11.60;99.90;;;;;;5040917;28;20189;-42
2023/05/12 06:12:12;;;;;;;12.13;7.43;;;11.60;99.90;;;;;;5032408;28;20196;-42
2023/05/12 06:14:37;;;;;;;9.90;7.77;;;11.60;99.90;;;;;;5032197;28;20188;-42
2023/05/12 06:17:03;;;;;;;12.90;8.80;;;11.60;99.90;;;;;;5024844;28;20228;-42
2023/05/12 06:19:29;;;;;;;12.00;8.53;;;11.70;99.90;;;;;;5026168;28;20297;-42
2023/05/12 06:21:55;;;;;;;14.67;8.40;;;11.70;99.90;;;;;;5032358;28;20283;-43
2023/05/12 06:24:21;;;;;;;12.67;8.90;;;11.80;99.90;;;;;;5026908;28;20271;-42
2023/05/12 06:26:47;;;;;;;15.20;9.63;;;11.80;99.90;;;;;;5050454;28;20222;-43
2023/05/12 06:29:14;;;;;;;13.33;9.70;;;11.80;99.90;;;;;;5070318;28;20191;-43
2023/05/12 06:31:39;;;;;;;17.07;10.37;;;11.90;99.90;;;;;;5035278;28;20206;-42
2023/05/12 06:34:05;;;;;;;14.83;10.10;;;11.90;99.90;;;;;;5051824;28;20205;-43
2023/05/12 06:36:32;;;;;;;16.13;10.47;;;12.00;99.90;;;;;;5052290;28;20186;-42
2023/05/12 06:38:58;;;;;;;17.70;11.03;;;12.00;99.90;;;;;;5067135;28;20212;-42
2023/05/12 06:41:24;;;;;;;12.53;9.57;;;12.10;99.90;;;;;;5039222;28;20189;-42
2023/05/12 06:43:51;;;;;;;13.80;9.93;;;12.20;99.90;;;;;;5031726;28;20228;-43
2023/05/12 06:46:23;;;;;;;17.20;10.23;;;12.20;99.90;;;;;;5032592;28;20216;-42
2023/05/12 06:48:49;;;;;;;17.37;10.27;;;12.30;99.90;;;;;;5031489;28;20323;-43
2023/05/12 06:51:14;;;;;;;11.73;9.57;;;12.30;99.90;;;;;;5050132;28;20273;-43
2023/05/12 06:53:40;;;;;;;12.83;9.63;;;12.30;99.90;;;;;;5031804;28;20290;-42
2023/05/12 06:56:06;;;;;;;14.13;9.90;;;12.40;99.90;;;;;;5036343;28;20199;-42
2023/05/12 06:58:32;;;;;;;13.27;10.43;;;12.40;99.90;;;;;;5035496;28;20217;-43
2023/05/12 07:00:58;;;;;;;13.03;10.20;;;12.50;99.90;;;;;;5035680;28;20183;-42
2023/05/12 07:03:24;;;;;;;15.23;10.37;;;12.60;99.90;;;;;;5035681;28;20205;-43
2023/05/12 07:05:50;;;;;;;15.30;12.50;;;12.70;99.90;;;;;;5053594;28;20196;-43
2023/05/12 07:08:16;;;;;;;14.50;11.37;;;12.80;99.90;;;;;;5040010;28;20520;-43
2023/05/12 07:10:41;;;;;;;13.57;10.50;;;12.80;99.90;;;;;;5054160;28;20274;-42
2023/05/12 07:13:07;;;;;;;15.00;11.00;;;12.90;99.90;;;;;;5035018;28;20280;-43
2023/05/12 07:15:33;;;;;;;11.87;10.07;;;13.00;99.90;;;;;;5052614;28;20177;-42
2023/05/12 07:17:59;;;;;;;14.97;10.97;;;13.10;99.90;;;;;;5058813;28;20197;-42
2023/05/12 07:20:25;;;;;;;15.47;11.67;;;13.20;99.90;;;;;;5035212;28;20237;-43
2023/05/12 07:22:53;;;;;;;11.70;9.07;;;13.30;99.90;;;;;;5035338;28;20211;-42
2023/05/12 07:25:19;;;;;;;13.47;10.83;;;13.40;99.90;;;;;;5053215;28;20178;-43
2023/05/12 07:27:45;;;;;;;14.43;11.63;;;13.50;99.90;;;;;;5055910;28;20178;-43
2023/05/12 07:30:11;;;;;;;13.87;11.43;;;13.60;99.90;;;;;;5053254;28;20178;-43
2023/05/12 07:32:37;;;;;;;13.17;11.00;;;13.70;99.90;;;;;;5060701;28;20205;-43
2023/05/12 07:35:03;;;;;;;12.03;10.17;;;13.70;99.90;;;;;;5035091;28;20181;-42
2023/05/12 07:37:30;;;;;;;12.63;10.87;;;13.70;99.90;;;;;;5018587;28;20184;-40
2023/05/12 07:39:56;;;;;;;13.87;11.10;;;13.60;99.90;;;;;;5044406;28;20213;-43
2023/05/12 07:42:22;;;;;;;16.40;11.40;;;13.60;99.90;;;;;;5058385;28;20185;-43
2023/05/12 07:44:48;;;;;;;11.47;10.10;;;13.70;99.90;;;;;;5032950;28;20194;-42
2023/05/12 07:47:14;;;;;;;11.60;9.80;;;13.70;99.90;;;;;;5059031;28;20175;-41
2023/05/12 07:49:40;;;;;;;10.50;9.40;;;13.80;99.90;;;;;;5061339;28;20195;-43
2023/05/12 07:52:06;;;;;;;13.73;9.87;;;13.90;99.90;;;;;;5060585;28;20265;-42
2023/05/12 07:54:31;;;;;;;10.27;9.27;;;13.80;99.90;;;;;;5035610;28;20198;-43
2023/05/12 07:56:57;;;;;;;8.97;8.07;;;13.80;99.90;;;;;;5052720;28;20185;-42
2023/05/12 07:59:23;;;;;;;9.73;8.73;;;13.90;99.90;;;;;;5053878;28;20252;-42
2023/05/12 08:01:49;;;;;;;10.00;8.90;;;14.00;99.90;;;;;;5042616;28;20170;-43
2023/05/12 08:04:14;;;;;;;10.23;9.13;;;14.00;99.90;;;;;;5041251;28;20239;-43
2023/05/12 08:06:40;;;;;;;11.10;9.33;;;14.10;99.90;;;;;;5034174;28;20177;-42
2023/05/12 08:09:06;;;;;;;8.90;8.00;;;14.20;99.90;;;;;;5045649;28;20174;-43
2023/05/12 08:11:33;;;;;;;8.60;7.70;;;14.30;99.90;;;;;;5038633;28;20208;-43
2023/05/12 08:13:59;;;;;;;10.80;8.73;;;14.50;99.90;;;;;;5042361;28;20198;-41
2023/05/12 08:16:25;;;;;;;10.00;8.77;;;14.60;99.90;;;;;;5029748;28;20210;-42
2023/05/12 08:18:51;;;;;;;10.50;8.73;;;14.70;99.90;;;;;;5055527;28;20259;-43
2023/05/12 08:21:17;;;;;;;10.53;8.93;;;14.80;99.90;;;;;;5065882;28;20177;-43
2023/05/12 08:23:43;;;;;;;10.17;8.13;;;14.60;99.90;;;;;;5058372;28;20204;-43
2023/05/12 08:26:11;;;;;;;8.97;7.70;;;14.50;99.90;;;;;;5039061;28;20211;-43
2023/05/12 08:28:38;;;;;;;8.63;7.73;;;14.50;99.90;;;;;;5034610;28;20264;-43
2023/05/12 08:31:05;;;;;;;7.90;7.20;;;14.60;99.90;;;;;;5051939;28;20182;-42
2023/05/12 08:33:35;;;;;;;10.77;9.20;;;14.80;99.90;;;;;;5037338;28;20229;-42
2023/05/12 08:36:02;;;;;;;9.20;8.23;;;15.00;99.90;;;;;;5034043;28;20186;-43
2023/05/12 08:38:28;;;;;;;9.10;8.07;;;15.20;99.90;;;;;;5039708;28;20691;-42
2023/05/12 08:41:16;;;;;;;8.37;7.47;;;15.30;99.90;;;;;;5057833;28;20179;-42
2023/05/12 08:43:50;;;;;;;8.87;7.83;;;15.40;99.90;;;;;;5035967;28;20223;-43
2023/05/12 08:46:19;;;;;;;8.23;7.33;;;15.50;99.90;;;;;;5054805;28;20292;-42
2023/05/12 08:48:47;;;;;;;8.40;7.40;;;15.50;99.90;;;;;;5042668;28;20211;-41
2023/05/12 08:51:14;;;;;;;7.23;6.53;;;15.40;99.90;;;;;;5040530;28;20182;-42
2023/05/12 08:53:41;;;;;;;7.77;7.07;;;15.40;99.90;;;;;;5033446;28;20206;-42
2023/05/12 08:56:09;;;;;;;5.72;5.03;;;15.50;99.90;;;;;;5033954;28;20220;-42
2023/05/12 08:58:36;;;;;;;4.27;3.87;;;15.60;99.90;;;;;;5037474;28;20210;-41
2023/05/12 09:01:06;;;;;;;4.43;4.03;;;15.70;99.90;;;;;;5040368;28;20653;-42
2023/05/12 09:03:35;;;;;;;4.57;3.60;;;15.70;99.90;;;;;;5029320;28;20293;-42
2023/05/12 09:06:02;;;;;;;4.30;3.90;;;15.80;99.90;;;;;;5041488;28;20182;-42
2023/05/12 09:08:33;;;;;;;5.13;4.47;;;15.80;99.90;;;;;;5039408;28;20173;-41
2023/05/12 09:11:01;;;;;;;4.40;3.93;;;15.50;99.90;;;;;;5033008;28;20178;-43
2023/05/12 09:13:51;;;;;;;5.63;4.03;;;15.50;99.90;;;;;;5054493;28;20299;-43
2023/05/12 09:16:24;;;;;;;4.27;3.87;;;15.60;99.90;;;;;;5047301;28;20245;-43
2023/05/12 09:18:51;;;;;;;6.90;4.57;;;15.50;99.90;;;;;;5071232;28;20205;-42
2023/05/12 09:21:17;;;;;;;4.70;3.70;;;15.50;99.90;;;;;;5032890;28;20177;-43
2023/05/12 09:23:57;;;;;;;4.77;4.13;;;15.60;99.90;;;;;;5049099;28;20212;-42
2023/05/12 09:26:29;;;;;;;3.97;3.57;;;15.60;99.90;;;;;;5057911;28;20170;-42
2023/05/12 09:29:06;;;;;;;3.77;3.47;;;15.60;99.90;;;;;;5062310;28;20173;-42
2023/05/12 09:31:34;;;;;;;3.67;3.30;;;15.70;99.90;;;;;;5036469;28;20222;-43
2023/05/12 09:34:08;;;;;;;3.30;3.00;;;15.70;99.90;;;;;;5032690;28;20202;-43
2023/05/12 09:36:35;;;;;;;3.23;2.93;;;15.80;99.90;;;;;;5015603;28;20182;-42
2023/05/12 09:39:07;;;;;;;3.17;2.97;;;15.90;99.90;;;;;;5040016;28;20201;-41
2023/05/12 09:41:38;;;;;;;3.00;2.80;;;15.90;99.90;;;;;;5030630;28;20177;-40
2023/05/12 09:44:07;;;;;;;3.40;2.28;;;16.00;99.90;;;;;;5032643;28;20221;-42
2023/05/12 09:46:35;;;;;;;2.80;2.60;;;16.00;99.90;;;;;;5044956;28;20170;-41
2023/05/12 09:49:04;;;;;;;2.93;2.70;;;16.10;99.90;;;;;;5059002;28;20174;-42
2023/05/12 09:51:30;;;;;;;2.60;2.40;;;15.80;99.90;;;;;;5025937;28;20190;-41
2023/05/12 09:53:56;;;;;;;3.65;2.50;;;15.90;99.90;;;;;;5033144;28;20205;-42
2023/05/12 09:56:26;;;;;;;2.60;2.40;;;15.90;99.90;;;;;;5027012;28;20182;-42
2023/05/12 09:58:55;;;;;;;2.20;2.00;;;15.70;99.90;;;;;;5049009;28;20212;-42
2023/05/12 10:01:22;;;;;;;2.50;2.30;;;15.60;99.90;;;;;;5058368;28;20181;-43
2023/05/12 10:03:58;;;;;;;2.80;2.60;;;15.80;99.90;;;;;;5033055;28;20205;-41
2023/05/12 10:06:32;;;;;;;2.30;2.10;;;15.90;99.90;;;;;;5044497;28;20177;-41
2023/05/12 10:08:59;;;;;;;2.50;2.27;;;16.10;99.90;;;;;;5061775;28;20192;-42
2023/05/12 10:11:25;;;;;;;2.30;2.10;;;16.30;99.90;;;;;;5058184;28;20181;-43
2023/05/12 10:13:52;;;;;;;3.05;2.10;;;16.20;99.90;;;;;;5056002;28;20205;-43
2023/05/12 10:16:19;;;;;;;2.33;2.10;;;16.10;99.90;;;;;;5028369;28;20322;-42
2023/05/12 10:18:46;;;;;;;2.40;2.20;;;16.30;99.90;;;;;;5028979;28;20212;-43
2023/05/12 10:21:12;;;;;;;2.67;2.38;;;16.10;99.90;;;;;;5055641;28;20177;-40
2023/05/12 10:23:43;;;;;;;1.95;1.85;;;16.00;99.90;;;;;;5032244;28;20702;-43
2023/05/12 10:26:12;;;;;;;2.20;2.08;;;16.20;99.90;;;;;;5042238;28;20173;-43
2023/05/12 10:28:38;;;;;;;1.90;1.80;;;16.60;99.90;;;;;;5055350;28;20194;-43
2023/05/12 10:31:09;;;;;;;2.10;1.90;;;16.80;99.90;;;;;;5032830;28;20195;-40
2023/05/12 10:33:35;;;;;;;2.00;1.90;;;17.00;99.90;;;;;;5046498;28;20234;-40
2023/05/12 10:36:02;;;;;;;2.13;1.95;;;17.20;99.90;;;;;;5043705;28;20297;-40
2023/05/12 10:38:36;;;;;;;2.75;2.00;;;17.30;99.90;;;;;;5044526;28;20177;-43
2023/05/12 10:41:05;;;;;;;1.80;1.70;;;17.50;99.90;;;;;;5035729;28;20230;-42
2023/05/12 10:43:44;;;;;;;1.75;1.65;;;17.70;99.90;;;;;;5064446;28;20244;-43
2023/05/12 10:46:19;;;;;;;1.80;1.70;;;17.40;99.90;;;;;;5058614;28;20169;-43
2023/05/12 10:48:56;;;;;;;1.95;1.58;;;17.50;99.90;;;;;;5055602;28;20173;-41
2023/05/12 10:51:29;;;;;;;1.92;1.60;;;17.70;99.90;;;;;;5057245;28;20254;-43
2023/05/12 10:54:05;;;;;;;1.60;1.45;;;17.80;99.90;;;;;;5039734;28;20200;-42
2023/05/12 10:56:44;;;;;;;1.65;1.55;;;17.90;99.90;;;;;;5043882;28;20185;-43
2023/05/12 10:59:18;;;;;;;4.03;1.67;;;17.70;99.90;;;;;;5028301;28;20198;-42
2023/05/12 11:02:15;;;;;;;1.75;1.65;;;17.70;99.90;;;;;;5060958;28;20177;-42
2023/05/12 11:04:53;;;;;;;1.90;1.80;;;17.60;99.90;;;;;;5041491;28;20283;-43
2023/05/12 11:07:25;;;;;;;2.08;1.88;;;17.30;99.90;;;;;;5036345;28;20190;-42
2023/05/12 11:09:51;;;;;;;1.80;1.70;;;17.30;99.90;;;;;;5037814;28;20190;-42
2023/05/12 11:12:22;;;;;;;1.70;1.60;;;17.20;99.90;;;;;;5063667;28;20178;-41
2023/05/12 11:14:54;;;;;;;1.60;1.50;;;17.20;99.90;;;;;;5034149;28;20194;-42
2023/05/12 11:17:22;;;;;;;1.80;1.60;;;17.00;99.90;;;;;;5064819;28;20201;-42
2023/05/12 11:19:49;;;;;;;1.50;1.40;;;16.80;99.90;;;;;;5071265;28;20297;-41
2023/05/12 11:22:20;;;;;;;1.50;1.40;;;16.60;99.90;;;;;;5068958;28;20239;-40
2023/05/12 11:24:47;;;;;;;1.45;1.35;;;16.20;99.90;;;;;;5035163;28;20189;-42
2023/05/12 11:27:15;;;;;;;2.55;1.58;;;16.20;99.90;;;;;;5031032;28;20181;-41
2023/05/12 11:29:42;;;;;;;1.15;1.15;;;16.20;99.90;;;;;;5055182;28;20177;-42
2023/05/12 11:32:10;;;;;;;1.27;1.20;;;16.00;99.90;;;;;;5069399;28;20178;-42
2023/05/12 11:34:36;;;;;;;1.00;1.00;;;16.00;99.90;;;;;;5069551;28;20197;-42
2023/05/12 11:37:03;;;;;;;1.63;1.23;;;16.10;99.90;;;;;;5051553;28;20204;-40
2023/05/12 11:39:31;;;;;;;2.67;1.50;;;16.10;99.90;;;;;;5048568;28;20213;-41
2023/05/12 11:42:06;;;;;;;2.65;2.08;;;16.10;99.90;;;;;;5035933;28;20185;-41
2023/05/12 11:44:32;;;;;;;1.92;1.27;;;16.10;99.90;;;;;;5052509;28;20215;-42
2023/05/12 11:47:02;;;;;;;2.20;1.40;;;16.00;99.90;;;;;;5068573;28;20185;-41
2023/05/12 11:49:30;;;;;;;1.70;1.60;;;16.00;99.90;;;;;;5042995;28;20183;-42
2023/05/12 11:52:01;;;;;;;3.75;2.58;;;16.00;99.90;;;;;;5062547;28;20205;-42
2023/05/12 11:54:29;;;;;;;1.92;1.50;;;16.00;99.90;;;;;;5034495;28;20202;-42
2023/05/12 11:56:56;;;;;;;1.90;1.80;;;16.00;99.90;;;;;;5053501;28;20186;-42
2023/05/12 11:59:32;;;;;;;1.92;1.70;;;15.90;99.90;;;;;;5045375;28;20197;-42
2023/05/12 12:02:00;;;;;;;2.30;2.10;;;15.80;99.90;;;;;;5050639;28;20236;-42
2023/05/12 12:04:34;;;;;;;3.03;2.77;;;15.70;99.90;;;;;;5042726;28;20206;-42
2023/05/12 12:07:01;;;;;;;3.27;2.47;;;15.60;99.90;;;;;;5039073;28;20320;-43
2023/05/12 12:09:39;;;;;;;2.90;2.70;;;15.50;99.90;;;;;;5047847;28;20185;-43
2023/05/12 12:12:06;;;;;;;3.57;2.20;;;15.40;99.90;;;;;;5030248;28;20192;-41
2023/05/12 12:14:34;;;;;;;2.60;2.40;;;15.40;99.90;;;;;;5037009;28;20229;-41
2023/05/12 12:17:00;;;;;;;3.40;2.13;;;15.40;99.90;;;;;;5024630;28;20197;-42
2023/05/12 12:19:27;;;;;;;3.10;1.80;;;15.50;99.90;;;;;;5031477;28;20209;-42
2023/05/12 12:21:53;;;;;;;3.27;1.90;;;15.50;99.90;;;;;;5060121;28;20200;-40
2023/05/12 12:24:20;;;;;;;2.00;1.80;;;15.50;99.90;;;;;;5042036;28;20227;-41
2023/05/12 12:26:46;;;;;;;2.53;1.90;;;15.60;99.90;;;;;;5035918;28;20207;-41
2023/05/12 12:29:11;;;;;;;2.65;1.88;;;15.70;99.90;;;;;;5039085;28;20185;-41
2023/05/12 12:31:37;;;;;;;2.30;2.10;;;15.90;99.90;;;;;;5038329;28;20182;-40
2023/05/12 12:34:04;;;;;;;3.05;1.95;;;16.10;99.90;;;;;;5036884;28;20209;-41
2023/05/12 12:36:31;;;;;;;1.80;1.70;;;16.50;99.90;;;;;;5039379;28;20189;-41
2023/05/12 12:38:58;;;;;;;1.40;1.25;;;16.60;99.90;;;;;;5060000;28;20208;-41
2023/05/12 12:41:24;;;;;;;1.30;1.08;;;16.80;99.90;;;;;;5042851;28;20209;-40
2023/05/12 12:43:51;;;;;;;1.42;1.27;;;17.00;99.90;;;;;;5048203;28;20215;-39